Kerteh, Kerteh Airport (WMKE)

NameKerteh Airport
CityKerteh
CountryMalaysia
ICAOWMKE
IATAKTE
Altitude5 m
CoordinatesGoogle Map
Live Air TrafficLiveATC.net
METARWMKE 251700Z AUTO 32003KT 280V030 //// // ////// 25/24 Q1011
2020-04-25 17:00:00 Wind: Northwest (320°) 1.54 m/s - Visibility: 3200 m - Temperature: 25 °C - Dew point: 24 °C - Humidity: 94.2% - Pressure: 1011 hPa

Sorry, no flights used the airport in this database.